Time,TemperatureF,DewpointF,PressureIn,WindDirection,WindDirectionDegrees,WindSpeedMPH,WindSpeedGustMPH,Humidity,HourlyPrecipIn,Conditions,Clouds,dailyrainin,SoftwareType,DateUTC
2013-04-20 00:03:00,36.0,31.0,30.00,NNE,19,10.0,20.0,81,0.00,,,0.76,,2013-04-20 04:03:00,
2013-04-20 00:12:00,36.0,31.0,30.00,NNE,19,10.0,20.0,81,0.00,,,0.76,,2013-04-20 04:12:00,
2013-04-20 00:23:00,36.0,31.0,30.01,ENE,58,9.0,20.0,81,0.00,,,0.76,,2013-04-20 04:23:00,
2013-04-20 00:33:00,36.0,31.0,30.01,WNW,294,8.0,22.0,81,0.00,,,0.76,,2013-04-20 04:33:00,
2013-04-20 00:42:00,36.0,31.0,30.01,WNW,294,8.0,22.0,81,0.00,,,0.76,,2013-04-20 04:42:00,
2013-04-20 00:52:00,35.0,30.0,30.01,North,354,12.0,21.0,81,0.00,,,0.76,,2013-04-20 04:52:00,
2013-04-20 01:02:00,35.0,30.0,30.03,NNE,27,8.0,15.0,82,0.00,,,0.76,,2013-04-20 05:02:00,
2013-04-20 01:12:00,35.0,30.0,30.03,NNE,27,8.0,15.0,82,0.00,,,0.76,,2013-04-20 05:12:00,
2013-04-20 01:22:00,35.0,30.0,30.03,West,280,13.0,27.0,83,0.00,,,0.76,,2013-04-20 05:22:00,
2013-04-20 01:32:00,34.0,29.0,30.03,NW,316,10.0,26.0,82,0.00,,,0.76,,2013-04-20 05:32:00,
2013-04-20 01:43:00,34.0,29.0,30.03,NW,316,10.0,26.0,82,0.00,,,0.76,,2013-04-20 05:43:00,
2013-04-20 01:52:00,34.0,29.0,30.03,North,11,9.0,22.0,81,0.00,,,0.76,,2013-04-20 05:52:00,
2013-04-20 02:02:00,34.0,29.0,30.04,NW,304,9.0,20.0,81,0.00,,,0.76,,2013-04-20 06:02:00,
2013-04-20 02:12:00,34.0,29.0,30.04,NW,304,9.0,20.0,81,0.00,,,0.76,,2013-04-20 06:12:00,
2013-04-20 02:21:00,34.0,29.0,30.04,NW,318,7.0,21.0,83,0.00,,,0.76,,2013-04-20 06:21:00,
2013-04-20 02:32:00,34.0,29.0,30.05,NW,312,8.0,14.0,82,0.00,,,0.76,,2013-04-20 06:32:00,
2013-04-20 02:42:00,34.0,29.0,30.05,NW,312,8.0,14.0,82,0.00,,,0.76,,2013-04-20 06:42:00,
2013-04-20 02:52:00,33.0,28.0,30.05,NNW,328,7.0,19.0,81,0.00,,,0.69,,2013-04-20 06:52:00,
2013-04-20 03:02:00,33.0,28.0,30.05,WNW,299,7.0,19.0,81,0.00,,,0.69,,2013-04-20 07:02:00,
2013-04-20 03:11:00,33.0,28.0,30.05,WNW,299,7.0,19.0,81,0.00,,,0.69,,2013-04-20 07:11:00,
2013-04-20 03:22:00,33.0,28.0,30.05,NE,37,8.0,18.0,81,0.00,,,0.69,,2013-04-20 07:22:00,
2013-04-20 03:32:00,33.0,28.0,30.06,NNW,338,5.0,17.0,81,0.00,,,0.69,,2013-04-20 07:32:00,
2013-04-20 03:42:00,33.0,28.0,30.06,NE,43,9.0,17.0,81,0.00,,,0.59,,2013-04-20 07:42:00,
2013-04-20 03:52:00,33.0,28.0,30.06,NE,43,9.0,17.0,81,0.00,,,0.59,,2013-04-20 07:52:00,
2013-04-20 04:02:00,32.0,27.0,30.07,ENE,62,11.0,20.0,81,0.00,,,0.59,,2013-04-20 08:02:00,
2013-04-20 04:11:00,32.0,27.0,30.07,ENE,62,11.0,20.0,81,0.00,,,0.59,,2013-04-20 08:11:00,
2013-04-20 04:21:00,32.0,27.0,30.07,NE,46,11.0,20.0,80,0.00,,,0.59,,2013-04-20 08:21:00,
2013-04-20 04:32:00,32.0,27.0,30.08,NNE,27,12.0,27.0,80,0.00,,,0.59,,2013-04-20 08:32:00,
2013-04-20 04:42:00,32.0,27.0,30.08,NNE,27,12.0,27.0,80,0.00,,,0.59,,2013-04-20 08:42:00,
2013-04-20 04:52:00,31.0,26.0,30.09,WNW,286,9.0,20.0,80,0.00,,,0.57,,2013-04-20 08:52:00,
2013-04-20 05:02:00,31.0,26.0,30.10,NNE,12,9.0,14.0,80,0.00,,,0.57,,2013-04-20 09:02:00,
2013-04-20 05:12:00,31.0,26.0,30.10,NNE,12,9.0,14.0,80,0.00,,,0.57,,2013-04-20 09:12:00,
2013-04-20 05:21:00,31.0,25.0,30.11,ENE,58,11.0,19.0,79,0.00,,,0.57,,2013-04-20 09:21:00,
2013-04-20 05:33:00,31.0,23.0,30.11,NNE,27,12.0,21.0,72,0.00,,,0.57,,2013-04-20 09:33:00,
2013-04-20 05:43:00,31.0,23.0,30.11,NNE,27,12.0,21.0,72,0.00,,,0.57,,2013-04-20 09:43:00,
2013-04-20 05:53:00,31.0,21.0,30.11,NNE,12,13.0,28.0,65,0.00,,,0.57,,2013-04-20 09:53:00,
2013-04-20 06:03:00,32.0,20.0,30.12,North,1,11.0,22.0,61,0.00,,,0.57,,2013-04-20 10:03:00,
2013-04-20 06:13:00,32.0,20.0,30.12,North,1,11.0,22.0,61,0.00,,,0.57,,2013-04-20 10:13:00,
2013-04-20 06:23:00,32.0,20.0,30.13,NNE,21,8.0,25.0,61,0.00,,,0.57,,2013-04-20 10:23:00,
2013-04-20 06:33:00,32.0,19.0,30.14,NNE,27,7.0,21.0,59,0.00,,,0.57,,2013-04-20 10:33:00,
2013-04-20 06:42:00,32.0,19.0,30.14,NNE,27,7.0,21.0,59,0.00,,,0.57,,2013-04-20 10:42:00,
2013-04-20 06:52:00,32.0,19.0,30.13,North,358,11.0,23.0,59,0.00,,,0.57,,2013-04-20 10:52:00,
2013-04-20 07:02:00,31.0,18.0,30.14,NE,37,10.0,20.0,59,0.00,,,0.57,,2013-04-20 11:02:00,
2013-04-20 07:12:00,31.0,18.0,30.14,NE,37,10.0,20.0,59,0.00,,,0.57,,2013-04-20 11:12:00,
2013-04-20 07:23:00,31.0,18.0,30.16,NNE,33,10.0,20.0,58,0.00,,,0.57,,2013-04-20 11:23:00,
2013-04-20 07:32:00,31.0,18.0,30.16,NNE,33,8.0,15.0,58,0.00,,,0.57,,2013-04-20 11:32:00,
2013-04-20 07:42:00,31.0,18.0,30.16,NNE,33,8.0,15.0,58,0.00,,,0.57,,2013-04-20 11:42:00,
2013-04-20 07:52:00,31.0,18.0,30.18,NNE,22,9.0,19.0,59,0.00,,,0.57,,2013-04-20 11:52:00,
2013-04-20 08:02:00,32.0,19.0,30.19,NE,36,10.0,21.0,58,0.00,,,0.57,,2013-04-20 12:02:00,
2013-04-20 08:11:00,32.0,19.0,30.19,NE,36,10.0,21.0,58,0.00,,,0.57,,2013-04-20 12:11:00,
2013-04-20 08:22:00,32.0,19.0,30.20,NE,34,9.0,21.0,57,0.00,,,0.57,,2013-04-20 12:22:00,
2013-04-20 08:32:00,32.0,19.0,30.22,North,4,9.0,16.0,57,0.00,,,0.57,,2013-04-20 12:32:00,
2013-04-20 08:42:00,32.0,19.0,30.22,North,4,9.0,16.0,57,0.00,,,0.57,,2013-04-20 12:42:00,
2013-04-20 08:52:00,33.0,19.0,30.22,NNE,26,8.0,17.0,57,0.00,,,0.55,,2013-04-20 12:52:00,
2013-04-20 09:02:00,33.0,19.0,30.23,NNE,30,8.0,19.0,55,0.00,,,0.55,,2013-04-20 13:02:00,
2013-04-20 09:11:00,33.0,19.0,30.23,NNE,30,8.0,19.0,55,0.00,,,0.55,,2013-04-20 13:11:00,
2013-04-20 09:21:00,34.0,20.0,30.25,North,1,7.0,14.0,56,0.00,,,0.55,,2013-04-20 13:21:00,
2013-04-20 09:32:00,34.0,20.0,30.25,NNW,327,6.0,20.0,55,0.00,,,0.55,,2013-04-20 13:32:00,
2013-04-20 09:42:00,34.0,20.0,30.25,NNW,327,6.0,20.0,55,0.00,,,0.55,,2013-04-20 13:42:00,
2013-04-20 09:52:00,35.0,20.0,30.26,NE,52,5.0,14.0,54,0.00,,,0.54,,2013-04-20 13:52:00,
2013-04-20 10:02:00,35.0,20.0,30.27,North,357,9.0,18.0,53,0.00,,,0.54,,2013-04-20 14:02:00,
2013-04-20 10:11:00,35.0,20.0,30.27,North,357,9.0,18.0,53,0.00,,,0.54,,2013-04-20 14:11:00,
2013-04-20 10:21:00,36.0,21.0,30.27,NNE,13,7.0,13.0,53,0.00,,,0.54,,2013-04-20 14:21:00,
2013-04-20 10:32:00,37.0,21.0,30.28,WNW,286,5.0,15.0,51,0.00,,,0.54,,2013-04-20 14:32:00,
2013-04-20 10:42:00,37.0,21.0,30.28,WNW,286,5.0,15.0,51,0.00,,,0.54,,2013-04-20 14:42:00,
2013-04-20 10:51:00,38.0,21.0,30.29,NW,316,9.0,15.0,49,0.00,,,0.52,,2013-04-20 14:51:00,
2013-04-20 11:02:00,38.0,20.0,30.30,NW,307,8.0,17.0,48,0.00,,,0.52,,2013-04-20 15:02:00,
2013-04-20 11:12:00,38.0,20.0,30.30,NW,307,8.0,17.0,48,0.00,,,0.52,,2013-04-20 15:12:00,
2013-04-20 11:21:00,39.0,20.0,30.31,NNE,25,7.0,13.0,47,0.00,,,0.52,,2013-04-20 15:21:00,
2013-04-20 11:33:00,40.0,20.0,30.32,NW,316,5.0,11.0,45,0.00,,,0.52,,2013-04-20 15:33:00,
2013-04-20 11:43:00,40.0,20.0,30.32,NW,316,5.0,11.0,45,0.00,,,0.52,,2013-04-20 15:43:00,
2013-04-20 11:53:00,41.0,21.0,30.32,NNW,327,4.0,13.0,45,0.00,,,0.51,,2013-04-20 15:53:00,
2013-04-20 12:03:00,43.0,23.0,30.33,NW,323,5.0,10.0,44,0.00,,,0.51,,2013-04-20 16:03:00,
2013-04-20 12:12:00,43.0,20.0,30.33,NW,320,5.0,10.0,39,0.00,,,0.51,,2013-04-20 16:12:00,
2013-04-20 12:23:00,43.0,20.0,30.33,NW,320,5.0,10.0,39,0.00,,,0.51,,2013-04-20 16:23:00,
2013-04-20 12:33:00,44.0,19.0,30.33,North,356,5.0,17.0,37,0.00,,,0.51,,2013-04-20 16:33:00,
2013-04-20 12:42:00,44.0,19.0,30.33,North,356,5.0,17.0,37,0.00,,,0.51,,2013-04-20 16:42:00,
2013-04-20 12:52:00,46.0,21.0,30.33,NE,46,5.0,9.0,37,0.00,,,0.40,,2013-04-20 16:52:00,
2013-04-20 13:02:00,46.0,21.0,30.33,NW,326,3.0,11.0,37,0.00,,,0.40,,2013-04-20 17:02:00,
2013-04-20 13:12:00,46.0,21.0,30.33,NW,326,3.0,11.0,37,0.00,,,0.40,,2013-04-20 17:12:00,
2013-04-20 13:23:00,47.0,22.0,30.33,NW,310,5.0,14.0,37,0.00,,,0.40,,2013-04-20 17:23:00,
2013-04-20 13:33:00,48.0,22.0,30.33,WSW,252,4.0,11.0,35,0.00,,,0.40,,2013-04-20 17:33:00,
2013-04-20 13:42:00,48.0,22.0,30.33,WSW,252,4.0,11.0,35,0.00,,,0.40,,2013-04-20 17:42:00,
2013-04-20 13:52:00,49.0,19.0,30.33,NW,323,3.0,11.0,30,0.00,,,0.09,,2013-04-20 17:52:00,
2013-04-20 14:02:00,50.0,19.0,30.33,North,4,3.0,14.0,29,0.00,,,0.09,,2013-04-20 18:02:00,
2013-04-20 14:13:00,50.0,19.0,30.33,North,1,3.0,10.0,29,0.00,,,0.09,,2013-04-20 18:13:00,
2013-04-20 14:22:00,50.0,19.0,30.33,North,1,3.0,10.0,29,0.00,,,0.09,,2013-04-20 18:22:00,
2013-04-20 14:32:00,51.0,17.0,30.33,North,349,2.0,12.0,26,0.00,,,0.09,,2013-04-20 18:32:00,
2013-04-20 14:42:00,51.0,17.0,30.33,North,349,2.0,12.0,26,0.00,,,0.09,,2013-04-20 18:42:00,
2013-04-20 14:52:00,51.0,16.0,30.33,NW,305,5.0,10.0,25,0.00,,,0.07,,2013-04-20 18:52:00,
2013-04-20 15:02:00,52.0,18.0,30.33,NNE,25,5.0,10.0,26,0.00,,,0.07,,2013-04-20 19:02:00,
2013-04-20 15:11:00,53.0,18.0,30.33,North,5,5.0,10.0,25,0.00,,,0.07,,2013-04-20 19:11:00,
2013-04-20 15:21:00,53.0,18.0,30.33,North,5,5.0,10.0,25,0.00,,,0.07,,2013-04-20 19:21:00,
2013-04-20 15:32:00,53.0,19.0,30.33,NNW,342,3.0,7.0,26,0.00,,,0.07,,2013-04-20 19:32:00,
2013-04-20 15:42:00,54.0,22.0,30.32,WNW,300,4.0,9.0,29,0.00,,,0.00,,2013-04-20 19:42:00,
2013-04-20 15:52:00,54.0,22.0,30.32,WNW,300,4.0,9.0,29,0.00,,,0.00,,2013-04-20 19:52:00,
2013-04-20 16:02:00,55.0,21.0,30.32,WNW,291,2.0,6.0,26,0.00,,,0.00,,2013-04-20 20:02:00,
2013-04-20 16:12:00,54.0,19.0,30.32,East,84,4.0,7.0,25,0.00,,,0.00,,2013-04-20 20:12:00,
2013-04-20 16:22:00,54.0,19.0,30.32,East,84,4.0,7.0,25,0.00,,,0.00,,2013-04-20 20:22:00,
2013-04-20 16:32:00,55.0,20.0,30.32,NNW,338,2.0,7.0,25,0.00,,,0.00,,2013-04-20 20:32:00,
2013-04-20 16:42:00,55.0,20.0,30.32,NNW,338,2.0,7.0,25,0.00,,,0.00,,2013-04-20 20:42:00,
2013-04-20 16:52:00,55.0,20.0,30.32,NE,41,5.0,7.0,25,0.00,,,0.00,,2013-04-20 20:52:00,
2013-04-20 17:02:00,54.0,22.0,30.33,WNW,299,2.0,6.0,28,0.00,,,0.00,,2013-04-20 21:02:00,
2013-04-20 17:12:00,54.0,22.0,30.33,WNW,299,2.0,6.0,28,0.00,,,0.00,,2013-04-20 21:12:00,
2013-04-20 17:22:00,55.0,21.0,30.33,NE,49,4.0,7.0,26,0.00,,,0.00,,2013-04-20 21:22:00,
2013-04-20 17:33:00,57.0,26.0,30.33,NW,318,3.0,6.0,30,0.00,,,0.00,,2013-04-20 21:33:00,
2013-04-20 17:43:00,57.0,26.0,30.33,NW,318,3.0,6.0,30,0.00,,,0.00,,2013-04-20 21:43:00,
2013-04-20 17:52:00,57.0,26.0,30.33,NNW,347,2.0,10.0,30,0.00,,,0.00,,2013-04-20 21:52:00,
2013-04-20 18:03:00,57.0,29.0,30.33,North,352,4.0,10.0,34,0.00,,,0.00,,2013-04-20 22:03:00,
2013-04-20 18:12:00,57.0,29.0,30.33,North,352,4.0,10.0,34,0.00,,,0.00,,2013-04-20 22:12:00,
2013-04-20 18:23:00,56.0,27.0,30.33,WSW,248,5.0,9.0,32,0.00,,,0.00,,2013-04-20 22:23:00,
2013-04-20 18:32:00,56.0,24.0,30.34,North,357,2.0,7.0,29,0.00,,,0.00,,2013-04-20 22:32:00,
2013-04-20 18:42:00,56.0,24.0,30.34,North,357,2.0,7.0,29,0.00,,,0.00,,2013-04-20 22:42:00,
2013-04-20 18:52:00,56.0,23.0,30.34,East,79,2.0,7.0,28,0.00,,,0.00,,2013-04-20 22:52:00,
2013-04-20 19:02:00,56.0,24.0,30.34,WNW,303,0.0,3.0,29,0.00,,,0.00,,2013-04-20 23:02:00,
2013-04-20 19:12:00,56.0,24.0,30.34,WNW,303,0.0,3.0,29,0.00,,,0.00,,2013-04-20 23:12:00,
2013-04-20 19:22:00,55.0,31.0,30.34,SSE,159,0.0,5.0,39,0.00,,,0.00,,2013-04-20 23:22:00,
2013-04-20 19:32:00,55.0,33.0,30.35,SW,236,1.0,4.0,43,0.00,,,0.00,,2013-04-20 23:32:00,
2013-04-20 19:42:00,55.0,33.0,30.35,SW,236,1.0,4.0,43,0.00,,,0.00,,2013-04-20 23:42:00,
2013-04-20 19:52:00,54.0,31.0,30.35,NW,308,1.0,2.0,42,0.00,,,0.00,,2013-04-20 23:52:00,
2013-04-20 20:01:00,53.0,32.0,30.36,SW,235,0.0,3.0,44,0.00,,,0.00,,2013-04-21 00:01:00,
2013-04-20 20:12:00,53.0,32.0,30.36,SW,235,0.0,3.0,44,0.00,,,0.00,,2013-04-21 00:12:00,
2013-04-20 20:22:00,51.0,31.0,30.36,NNE,23,0.0,3.0,46,0.00,,,0.00,,2013-04-21 00:22:00,
2013-04-20 20:32:00,47.0,30.0,30.37,NNE,22,0.0,2.0,52,0.00,,,0.00,,2013-04-21 00:32:00,
2013-04-20 20:42:00,47.0,30.0,30.37,NNE,22,0.0,2.0,52,0.00,,,0.00,,2013-04-21 00:42:00,
2013-04-20 20:52:00,46.0,30.0,30.38,SE,143,2.0,4.0,53,0.00,,,0.00,,2013-04-21 00:52:00,
2013-04-20 21:01:00,46.0,29.0,30.39,NW,307,0.0,2.0,51,0.00,,,0.00,,2013-04-21 01:01:00,
2013-04-20 21:12:00,46.0,29.0,30.39,NW,307,0.0,2.0,51,0.00,,,0.00,,2013-04-21 01:12:00,
2013-04-20 21:21:00,46.0,30.0,30.40,ENE,72,0.0,2.0,54,0.00,,,0.00,,2013-04-21 01:21:00,
2013-04-20 21:32:00,44.0,30.0,30.41,East,79,1.0,3.0,58,0.00,,,0.00,,2013-04-21 01:32:00,
2013-04-20 21:42:00,44.0,30.0,30.41,East,79,1.0,3.0,58,0.00,,,0.00,,2013-04-21 01:42:00,
2013-04-20 21:52:00,44.0,30.0,30.42,NE,50,3.0,4.0,58,0.00,,,0.00,,2013-04-21 01:52:00,
2013-04-20 22:02:00,42.0,28.0,30.42,NE,43,3.0,5.0,58,0.00,,,0.00,,2013-04-21 02:02:00,
2013-04-20 22:11:00,42.0,28.0,30.42,NE,43,3.0,5.0,58,0.00,,,0.00,,2013-04-21 02:11:00,
2013-04-20 22:22:00,43.0,28.0,30.43,NNE,27,5.0,7.0,55,0.00,,,0.00,,2013-04-21 02:22:00,
2013-04-20 22:32:00,42.0,26.0,30.43,NNE,33,5.0,7.0,53,0.00,,,0.00,,2013-04-21 02:32:00,
2013-04-20 22:42:00,42.0,26.0,30.43,NNE,33,5.0,7.0,53,0.00,,,0.00,,2013-04-21 02:42:00,
2013-04-20 22:52:00,42.0,26.0,30.44,NE,47,5.0,6.0,53,0.00,,,0.00,,2013-04-21 02:52:00,
2013-04-20 23:01:00,43.0,27.0,30.44,ENE,72,1.0,4.0,52,0.00,,,0.00,,2013-04-21 03:01:00,
2013-04-20 23:11:00,43.0,27.0,30.44,ENE,72,1.0,4.0,52,0.00,,,0.00,,2013-04-21 03:11:00,
2013-04-20 23:22:00,42.0,26.0,30.45,East,88,1.0,1.0,53,0.00,,,0.00,,2013-04-21 03:22:00,
2013-04-20 23:33:00,42.0,27.0,30.45,ENE,74,1.0,2.0,55,0.00,,,0.00,,2013-04-21 03:33:00,
2013-04-20 23:42:00,42.0,27.0,30.45,ENE,74,1.0,2.0,55,0.00,,,0.00,,2013-04-21 03:42:00,
2013-04-20 23:52:00,41.0,27.0,30.44,ENE,75,1.0,2.0,57,0.00,,,0.00,,2013-04-21 03:52:00,